Time;durP1;ratioP1;P1;durP2;ratioP2;P2;SDS_P1;SDS_P2;PMS_P1;PMS_P2;Temp;Humidity;BMP_temperature;BMP_pressure;BME280_temperature;BME280_humidity;BME280_pressure;Samples;Min_cycle;Max_cycle;Signal;HPM_P1;HPM_P2
2021/05/01 00:01:23;;;;;;;7.93;7.12;;;3.50;99.90;;;;;;471815;252;27446;-65
2021/05/01 00:03:22;;;;;;;10.05;8.35;;;3.50;99.90;;;;;;470036;247;27478;-65
2021/05/01 00:05:23;;;;;;;8.95;7.87;;;3.50;99.90;;;;;;469401;252;27861;-65
2021/05/01 00:07:24;;;;;;;8.05;7.25;;;3.50;99.90;;;;;;469394;252;27874;-65
2021/05/01 00:09:25;;;;;;;9.00;7.62;;;3.50;99.90;;;;;;469390;252;27859;-64
2021/05/01 00:11:27;;;;;;;8.65;7.35;;;3.50;99.90;;;;;;469394;252;27507;-64
2021/05/01 00:13:28;;;;;;;8.02;7.22;;;3.40;99.90;;;;;;469382;249;27530;-66
2021/05/01 00:15:29;;;;;;;8.32;7.30;;;3.40;99.90;;;;;;469380;252;27404;-65
2021/05/01 00:17:30;;;;;;;10.02;7.00;;;3.30;99.90;;;;;;469380;252;27412;-64
2021/05/01 00:19:32;;;;;;;10.73;7.87;;;3.30;99.90;;;;;;469372;252;27517;-64
2021/05/01 00:21:33;;;;;;;10.63;7.47;;;3.40;99.90;;;;;;469359;252;27488;-65
2021/05/01 00:23:34;;;;;;;14.65;11.95;;;3.30;99.90;;;;;;469380;252;27943;-65
2021/05/01 00:25:36;;;;;;;10.68;8.40;;;3.30;99.90;;;;;;469377;252;27861;-64
2021/05/01 00:27:37;;;;;;;14.68;11.00;;;3.10;99.90;;;;;;469375;252;27398;-65
2021/05/01 00:29:38;;;;;;;10.73;8.13;;;3.00;99.90;;;;;;469217;253;27474;-64
2021/05/01 00:31:39;;;;;;;10.60;8.88;;;3.00;99.90;;;;;;469352;252;27427;-64
2021/05/01 00:33:41;;;;;;;9.98;7.07;;;3.10;99.90;;;;;;469395;252;27429;-64
2021/05/01 00:35:43;;;;;;;9.48;7.60;;;3.10;99.90;;;;;;469364;249;27387;-64
2021/05/01 00:37:43;;;;;;;9.18;7.72;;;3.10;99.90;;;;;;469342;252;27391;-64
2021/05/01 00:39:44;;;;;;;9.90;7.57;;;3.10;99.90;;;;;;469365;252;27486;-64
2021/05/01 00:41:46;;;;;;;11.52;8.98;;;3.10;99.90;;;;;;469357;252;27874;-64
2021/05/01 00:43:47;;;;;;;9.60;8.02;;;3.20;99.90;;;;;;469371;252;28042;-64
2021/05/01 00:45:48;;;;;;;11.40;8.30;;;3.20;99.90;;;;;;469380;252;27973;-64
2021/05/01 00:47:49;;;;;;;13.13;9.25;;;3.20;99.90;;;;;;469361;249;27412;-64
2021/05/01 00:49:51;;;;;;;10.00;8.57;;;3.10;99.90;;;;;;469383;249;27472;-66
2021/05/01 00:51:52;;;;;;;11.50;9.68;;;3.10;99.90;;;;;;469353;252;27403;-64
2021/05/01 00:53:53;;;;;;;13.07;9.98;;;3.10;99.90;;;;;;469372;252;27402;-64
2021/05/01 00:55:54;;;;;;;12.85;10.00;;;3.10;99.90;;;;;;469379;252;27450;-64
2021/05/01 00:57:56;;;;;;;9.13;8.00;;;3.20;99.90;;;;;;469372;252;27415;-64
2021/05/01 00:59:57;;;;;;;10.05;8.95;;;3.20;99.90;;;;;;469380;252;27934;-64
2021/05/01 01:02:00;;;;;;;9.70;8.65;;;3.10;99.90;;;;;;469347;249;27871;-64
2021/05/01 01:03:59;;;;;;;10.80;8.82;;;3.00;99.90;;;;;;469284;253;28221;-64
2021/05/01 01:06:01;;;;;;;11.82;9.73;;;2.90;99.90;;;;;;469383;252;27488;-63
2021/05/01 01:08:02;;;;;;;10.95;9.00;;;2.80;99.90;;;;;;469403;252;27478;-65
2021/05/01 01:10:03;;;;;;;11.80;9.60;;;2.80;99.90;;;;;;469393;252;27394;-64
2021/05/01 01:12:06;;;;;;;16.70;11.27;;;2.90;99.90;;;;;;469383;249;27410;-64
2021/05/01 01:14:06;;;;;;;10.45;8.82;;;2.80;99.90;;;;;;469398;252;27470;-64
2021/05/01 01:16:07;;;;;;;11.45;9.63;;;2.80;99.90;;;;;;469388;252;27399;-64
2021/05/01 01:18:08;;;;;;;14.50;10.77;;;2.90;99.90;;;;;;469383;252;27884;-64
2021/05/01 01:20:09;;;;;;;13.50;10.27;;;2.90;99.90;;;;;;469403;252;27846;-64
2021/05/01 01:22:11;;;;;;;11.73;9.73;;;2.90;99.90;;;;;;469388;252;27404;-63
2021/05/01 01:24:12;;;;;;;11.05;9.65;;;2.90;99.90;;;;;;456649;249;27442;-64
2021/05/01 01:26:13;;;;;;;13.77;9.95;;;2.90;99.90;;;;;;456074;260;27569;-64
2021/05/01 01:28:14;;;;;;;10.43;9.05;;;2.90;99.90;;;;;;456062;260;27586;-65
2021/05/01 01:30:16;;;;;;;9.15;8.25;;;2.90;99.90;;;;;;456056;260;27573;-65
2021/05/01 01:34:27;;;;;;;13.32;8.90;;;2.70;99.90;;;;;;466061;255;27443;-65
2021/05/01 01:36:28;;;;;;;11.88;8.10;;;2.60;99.90;;;;;;466372;252;27427;-65
2021/05/01 01:38:29;;;;;;;12.82;10.35;;;2.60;99.90;;;;;;466361;254;27534;-65
2021/05/01 01:40:31;;;;;;;10.35;8.70;;;2.60;99.90;;;;;;466358;254;27633;-66
2021/05/01 01:42:32;;;;;;;12.20;9.45;;;2.50;99.90;;;;;;457152;260;27655;-65
2021/05/01 01:44:33;;;;;;;13.60;9.68;;;2.50;99.90;;;;;;457174;259;27606;-65
2021/05/01 01:46:34;;;;;;;12.48;9.52;;;2.40;99.90;;;;;;457145;259;28029;-64
2021/05/01 01:48:36;;;;;;;11.07;8.55;;;2.40;99.90;;;;;;457155;259;28153;-65
2021/05/01 01:50:37;;;;;;;9.60;8.60;;;2.40;99.90;;;;;;457185;259;28044;-66
2021/05/01 01:52:38;;;;;;;9.60;7.93;;;2.30;99.90;;;;;;457175;259;27569;-64
2021/05/01 01:54:39;;;;;;;10.30;8.20;;;2.30;99.90;;;;;;457146;259;27585;-65
2021/05/01 01:56:41;;;;;;;11.55;9.63;;;2.30;99.90;;;;;;457145;259;27589;-64
2021/05/01 01:58:42;;;;;;;10.10;8.80;;;2.30;99.90;;;;;;457147;259;27583;-64
2021/05/01 02:00:43;;;;;;;13.02;8.60;;;2.30;99.90;;;;;;457131;259;27590;-65
2021/05/01 02:02:44;;;;;;;12.98;9.05;;;2.30;99.90;;;;;;457155;259;27586;-64
2021/05/01 02:04:46;;;;;;;9.68;8.68;;;2.30;99.90;;;;;;457167;259;27578;-65
2021/05/01 02:06:47;;;;;;;10.95;9.75;;;2.30;99.90;;;;;;457147;259;27662;-64
2021/05/01 02:08:48;;;;;;;11.63;9.45;;;2.30;99.90;;;;;;457150;259;28153;-65
2021/05/01 02:10:49;;;;;;;13.05;11.00;;;2.30;99.90;;;;;;457160;259;28059;-66
2021/05/01 02:12:51;;;;;;;10.82;9.00;;;2.30;99.90;;;;;;457151;257;27663;-64
2021/05/01 02:14:52;;;;;;;11.25;10.05;;;2.30;99.90;;;;;;457146;259;27703;-65
2021/05/01 02:16:53;;;;;;;12.52;9.55;;;2.30;99.90;;;;;;457155;259;27648;-64
2021/05/01 02:18:54;;;;;;;10.10;9.00;;;2.30;99.90;;;;;;457145;259;27577;-64
2021/05/01 02:20:56;;;;;;;13.00;9.98;;;2.30;99.90;;;;;;457143;259;27700;-66
2021/05/01 02:22:57;;;;;;;11.60;10.15;;;2.30;99.90;;;;;;457143;259;27653;-64
2021/05/01 02:24:58;;;;;;;12.27;9.35;;;2.30;99.90;;;;;;457149;255;27571;-65
2021/05/01 02:27:00;;;;;;;11.93;9.35;;;2.30;99.90;;;;;;457154;259;28109;-64
2021/05/01 02:29:01;;;;;;;12.40;10.45;;;2.30;99.90;;;;;;457151;259;28043;-64
2021/05/01 02:31:02;;;;;;;15.50;11.10;;;2.30;99.90;;;;;;457146;259;27604;-65
2021/05/01 02:33:03;;;;;;;10.15;8.85;;;2.30;99.90;;;;;;457157;256;27577;-64
2021/05/01 02:35:05;;;;;;;12.75;9.70;;;2.30;99.90;;;;;;457166;259;27678;-65
2021/05/01 02:37:06;;;;;;;15.43;12.73;;;2.40;99.90;;;;;;457170;259;27572;-65
2021/05/01 02:39:07;;;;;;;13.57;11.70;;;2.30;99.90;;;;;;457157;259;27610;-65
2021/05/01 02:41:08;;;;;;;16.02;12.05;;;2.40;99.90;;;;;;457146;259;27602;-66
2021/05/01 02:43:10;;;;;;;15.73;12.52;;;2.40;99.90;;;;;;457158;259;28114;-64
2021/05/01 02:45:11;;;;;;;13.80;10.80;;;2.40;99.90;;;;;;457150;259;28048;-65
2021/05/01 02:47:13;;;;;;;21.17;15.52;;;2.40;99.90;;;;;;457138;259;27599;-64
2021/05/01 02:49:13;;;;;;;15.15;11.00;;;2.30;99.90;;;;;;457141;259;27595;-65
2021/05/01 02:51:15;;;;;;;13.25;10.65;;;2.20;99.90;;;;;;457146;257;27676;-66
2021/05/01 02:53:16;;;;;;;14.40;11.63;;;2.20;99.90;;;;;;457137;259;27691;-64
2021/05/01 02:55:17;;;;;;;15.68;11.35;;;2.20;99.90;;;;;;457138;259;27616;-64
2021/05/01 02:57:18;;;;;;;12.35;10.27;;;2.20;99.90;;;;;;457136;259;27587;-64
2021/05/01 02:59:20;;;;;;;18.77;12.60;;;2.30;99.90;;;;;;457130;256;28043;-64
2021/05/01 03:01:21;;;;;;;14.38;11.30;;;2.30;99.90;;;;;;457138;259;28077;-66
2021/05/01 03:03:22;;;;;;;15.15;11.43;;;2.30;99.90;;;;;;457123;259;27575;-65
2021/05/01 03:05:23;;;;;;;14.48;11.57;;;2.30;99.90;;;;;;457158;259;27680;-65
2021/05/01 03:07:25;;;;;;;16.25;11.80;;;2.30;99.90;;;;;;457135;259;27700;-64
2021/05/01 03:09:26;;;;;;;16.23;12.45;;;2.30;99.90;;;;;;457149;259;27602;-65
2021/05/01 03:11:27;;;;;;;14.60;10.98;;;2.30;99.90;;;;;;457147;259;27601;-67
2021/05/01 03:13:28;;;;;;;16.83;12.40;;;2.30;99.90;;;;;;457137;259;28039;-65
2021/05/01 03:15:30;;;;;;;15.95;11.48;;;2.30;99.90;;;;;;457140;259;28051;-65
2021/05/01 03:17:31;;;;;;;14.50;11.57;;;2.20;99.90;;;;;;457121;259;27670;-64
2021/05/01 03:19:32;;;;;;;15.02;11.80;;;2.20;99.90;;;;;;457139;259;27602;-65
2021/05/01 03:21:33;;;;;;;12.93;10.25;;;2.10;99.90;;;;;;457132;259;27601;-66
2021/05/01 03:23:35;;;;;;;12.85;10.77;;;2.10;99.90;;;;;;457160;259;27594;-65
2021/05/01 03:25:36;;;;;;;13.93;10.63;;;2.10;99.90;;;;;;457148;259;27677;-65
2021/05/01 03:27:37;;;;;;;13.38;10.90;;;2.10;99.90;;;;;;457112;259;27610;-65
2021/05/01 03:29:38;;;;;;;16.37;11.93;;;2.00;99.90;;;;;;457145;259;28145;-64
2021/05/01 03:31:40;;;;;;;13.70;10.35;;;2.00;99.90;;;;;;457146;257;28139;-71
2021/05/01 03:33:41;;;;;;;14.20;11.45;;;2.00;99.90;;;;;;457127;259;27583;-65
2021/05/01 03:35:42;;;;;;;13.40;11.15;;;2.00;99.90;;;;;;457149;259;27597;-65
2021/05/01 03:37:43;;;;;;;14.35;10.38;;;2.00;99.90;;;;;;457140;259;27675;-66
2021/05/01 03:39:45;;;;;;;16.27;12.40;;;2.00;99.90;;;;;;457142;259;27593;-65
2021/05/01 03:41:46;;;;;;;17.75;11.65;;;2.00;99.90;;;;;;457141;259;27590;-64
2021/05/01 03:43:47;;;;;;;15.48;11.80;;;2.00;99.90;;;;;;457134;259;28181;-64
2021/05/01 03:45:49;;;;;;;15.18;11.70;;;2.00;99.90;;;;;;457144;259;28047;-65
2021/05/01 03:47:50;;;;;;;13.38;11.27;;;2.00;99.90;;;;;;457169;256;27694;-70
2021/05/01 03:49:51;;;;;;;15.45;11.82;;;2.00;99.90;;;;;;457144;259;27602;-65
2021/05/01 03:51:52;;;;;;;13.15;11.00;;;1.90;99.90;;;;;;457142;256;27601;-64
2021/05/01 03:53:54;;;;;;;16.60;11.60;;;2.00;99.90;;;;;;457136;255;27675;-64
2021/05/01 03:55:55;;;;;;;15.05;11.82;;;2.00;99.90;;;;;;457160;259;27608;-65
2021/05/01 03:57:56;;;;;;;14.98;11.60;;;2.00;99.90;;;;;;457127;259;27587;-64
2021/05/01 03:59:57;;;;;;;20.80;12.70;;;2.00;99.90;;;;;;457140;255;28086;-65
2021/05/01 04:01:59;;;;;;;14.52;12.05;;;2.00;99.90;;;;;;457132;259;28405;-64
2021/05/01 04:04:00;;;;;;;17.05;11.77;;;2.00;99.90;;;;;;458118;250;27522;-64
2021/05/01 04:06:01;;;;;;;13.95;11.15;;;2.00;99.90;;;;;;472192;252;27509;-65
2021/05/01 04:08:02;;;;;;;18.83;14.05;;;2.00;99.90;;;;;;467681;254;27430;-64
2021/05/01 04:10:04;;;;;;;21.77;13.93;;;2.00;99.90;;;;;;466704;254;27564;-65
2021/05/01 04:12:05;;;;;;;16.17;12.77;;;2.00;99.90;;;;;;466696;255;27613;-65
2021/05/01 04:14:06;;;;;;;15.73;11.80;;;2.00;99.90;;;;;;466693;255;27994;-64
2021/05/01 04:16:07;;;;;;;14.10;11.82;;;2.00;99.90;;;;;;466676;255;28033;-66
2021/05/01 04:18:09;;;;;;;15.65;11.73;;;1.90;99.90;;;;;;466692;255;27556;-64
2021/05/01 04:20:10;;;;;;;22.40;13.43;;;1.80;99.90;;;;;;466700;255;27651;-64
2021/05/01 04:22:11;;;;;;;14.50;11.50;;;1.80;99.90;;;;;;466692;255;27652;-65
2021/05/01 04:24:12;;;;;;;16.60;11.70;;;1.80;99.90;;;;;;455866;251;27464;-64
2021/05/01 04:26:14;;;;;;;14.18;10.65;;;1.80;99.90;;;;;;451855;263;27646;-66
2021/05/01 04:28:15;;;;;;;15.75;11.93;;;1.80;99.90;;;;;;460460;257;27580;-65
2021/05/01 04:30:16;;;;;;;14.38;11.27;;;1.80;99.90;;;;;;451871;261;28204;-64
2021/05/01 04:34:28;;;;;;;14.95;11.43;;;1.80;99.90;;;;;;478254;248;27420;-66
2021/05/01 04:36:29;;;;;;;15.02;11.12;;;1.80;99.90;;;;;;482213;246;27591;-65
2021/05/01 04:38:30;;;;;;;13.70;11.77;;;1.80;99.90;;;;;;482199;246;27500;-64
2021/05/01 04:40:32;;;;;;;16.90;13.13;;;1.90;99.90;;;;;;482221;246;27479;-64
2021/05/01 04:42:35;;;;;;;16.42;12.05;;;2.00;99.90;;;;;;482201;246;27505;-64
2021/05/01 04:44:34;;;;;;;17.92;11.80;;;2.00;99.90;;;;;;482219;246;28101;-66
2021/05/01 04:46:35;;;;;;;21.30;14.27;;;2.00;99.90;;;;;;482206;246;27965;-65
2021/05/01 04:48:36;;;;;;;18.20;12.68;;;2.00;99.90;;;;;;482227;246;27939;-65
2021/05/01 04:50:39;;;;;;;17.77;12.85;;;2.00;99.90;;;;;;482215;246;27496;-65
2021/05/01 04:52:39;;;;;;;13.27;11.05;;;2.00;99.90;;;;;;482192;246;27573;-65
2021/05/01 04:54:40;;;;;;;15.10;12.00;;;2.00;99.90;;;;;;482205;246;27519;-64
2021/05/01 04:56:42;;;;;;;14.68;11.52;;;2.10;99.90;;;;;;482211;246;27510;-65
2021/05/01 04:58:43;;;;;;;18.55;13.40;;;2.20;99.90;;;;;;482212;246;27501;-65
2021/05/01 05:00:44;;;;;;;18.23;13.35;;;2.20;99.90;;;;;;482214;246;28034;-65
2021/05/01 05:02:46;;;;;;;17.05;13.55;;;2.30;99.90;;;;;;482201;246;27945;-64
2021/05/01 05:04:47;;;;;;;15.65;12.63;;;2.30;99.90;;;;;;482199;246;27499;-66
2021/05/01 05:06:48;;;;;;;27.37;20.50;;;2.40;99.90;;;;;;482233;246;27615;-65
2021/05/01 05:08:49;;;;;;;23.77;17.20;;;2.40;99.90;;;;;;482213;246;27589;-65
2021/05/01 05:10:50;;;;;;;30.08;20.37;;;2.50;99.90;;;;;;482204;246;27491;-65
2021/05/01 05:12:52;;;;;;;24.30;15.85;;;2.60;99.90;;;;;;477617;246;27534;-65
2021/05/01 05:14:53;;;;;;;22.67;16.33;;;2.70;99.90;;;;;;469027;252;28036;-66
2021/05/01 05:16:54;;;;;;;18.60;14.30;;;2.80;99.90;;;;;;469193;251;27998;-65
2021/05/01 05:18:56;;;;;;;35.85;23.48;;;2.90;99.90;;;;;;469189;251;27624;-65
2021/05/01 05:20:57;;;;;;;81.22;51.58;;;3.00;99.90;;;;;;469176;251;27562;-65
2021/05/01 05:22:58;;;;;;;76.97;48.15;;;3.00;99.90;;;;;;469187;251;27559;-65
2021/05/01 05:24:59;;;;;;;60.15;39.72;;;3.00;99.90;;;;;;469212;251;27538;-66
2021/05/01 05:27:01;;;;;;;78.30;50.53;;;3.10;99.90;;;;;;469197;251;27534;-65
2021/05/01 05:29:02;;;;;;;61.05;40.25;;;3.10;99.90;;;;;;469189;251;28018;-64
2021/05/01 05:31:03;;;;;;;72.20;43.50;;;3.10;99.90;;;;;;469190;251;27543;-65
2021/05/01 05:33:04;;;;;;;50.42;32.58;;;3.10;99.90;;;;;;471398;246;27503;-65
2021/05/01 05:35:05;;;;;;;53.00;35.38;;;3.10;99.90;;;;;;474254;250;27455;-66
2021/05/01 05:37:07;;;;;;;53.55;36.22;;;3.20;99.90;;;;;;474244;250;27559;-65
2021/05/01 05:39:08;;;;;;;47.47;32.30;;;3.30;99.90;;;;;;474259;250;27445;-65
2021/05/01 05:41:09;;;;;;;39.38;25.10;;;3.40;99.90;;;;;;474261;250;27902;-64
2021/05/01 05:43:10;;;;;;;32.03;23.15;;;3.50;99.90;;;;;;474653;250;27561;-65
2021/05/01 05:45:12;;;;;;;35.95;23.90;;;3.60;99.90;;;;;;474680;250;27644;-66
2021/05/01 05:47:13;;;;;;;38.13;24.45;;;3.70;99.90;;;;;;474649;250;27534;-65
2021/05/01 05:49:14;;;;;;;32.33;23.17;;;3.80;99.90;;;;;;474685;250;27671;-66
2021/05/01 05:51:16;;;;;;;32.38;23.17;;;3.90;99.90;;;;;;474681;250;27964;-65
2021/05/01 05:53:17;;;;;;;30.48;19.20;;;4.00;99.90;;;;;;474690;250;28110;-65
2021/05/01 05:55:18;;;;;;;27.85;20.25;;;4.10;99.90;;;;;;474676;250;27532;-66
2021/05/01 05:57:19;;;;;;;31.12;19.25;;;4.10;99.90;;;;;;474695;250;27630;-65
2021/05/01 05:59:21;;;;;;;25.90;18.40;;;4.10;99.90;;;;;;474688;250;27639;-65
2021/05/01 06:01:22;;;;;;;21.17;15.98;;;4.10;99.90;;;;;;474687;250;27544;-65
2021/05/01 06:03:23;;;;;;;24.50;17.02;;;4.10;99.90;;;;;;474676;250;27984;-65
2021/05/01 06:05:24;;;;;;;25.67;17.17;;;4.20;99.90;;;;;;474709;250;27773;-67
2021/05/01 06:07:26;;;;;;;23.52;18.02;;;4.30;99.90;;;;;;474675;250;27537;-65
2021/05/01 06:09:27;;;;;;;24.27;17.65;;;4.40;99.90;;;;;;474678;250;27649;-66
2021/05/01 06:11:28;;;;;;;20.98;15.63;;;4.60;99.90;;;;;;474692;250;27557;-65
2021/05/01 06:13:32;;;;;;;24.00;15.85;;;4.70;99.90;;;;;;474700;250;28039;-65
2021/05/01 06:15:31;;;;;;;18.85;14.68;;;4.80;99.90;;;;;;474695;250;27553;-68
2021/05/01 06:17:32;;;;;;;19.20;14.10;;;4.90;99.90;;;;;;474706;250;27604;-66
2021/05/01 06:19:33;;;;;;;18.95;14.05;;;4.90;99.90;;;;;;474694;250;27636;-65
2021/05/01 06:21:34;;;;;;;17.60;14.47;;;4.90;99.90;;;;;;474701;250;27545;-65
2021/05/01 06:23:36;;;;;;;17.27;12.85;;;5.00;99.90;;;;;;474674;250;28679;-65
2021/05/01 06:25:37;;;;;;;15.55;12.80;;;5.00;99.90;;;;;;474702;250;27526;-66
2021/05/01 06:27:38;;;;;;;15.93;12.73;;;5.10;99.90;;;;;;474701;250;27542;-65
2021/05/01 06:29:40;;;;;;;17.10;13.73;;;5.20;99.90;;;;;;474701;250;27649;-66
2021/05/01 06:31:41;;;;;;;17.53;13.40;;;5.30;99.90;;;;;;474691;250;28009;-65
2021/05/01 06:33:42;;;;;;;16.90;13.07;;;5.40;99.90;;;;;;474672;250;28524;-65
2021/05/01 06:35:44;;;;;;;19.33;14.40;;;5.50;99.90;;;;;;474694;250;28149;-66
2021/05/01 06:37:45;;;;;;;18.70;13.87;;;5.70;99.90;;;;;;474698;250;28590;-66
2021/05/01 06:39:47;;;;;;;19.60;14.03;;;5.80;99.90;;;;;;474689;250;28037;-65
2021/05/01 06:41:56;;;;;;;19.80;14.60;;;6.00;99.90;;;;;;474672;250;28144;-65
2021/05/01 06:43:58;;;;;;;21.57;14.90;;;6.10;99.90;;;;;;474683;250;28141;-65
2021/05/01 06:45:55;;;;;;;16.70;12.40;;;6.20;99.90;;;;;;474675;250;28525;-65
2021/05/01 06:47:57;;;;;;;22.90;16.27;;;6.30;99.90;;;;;;474690;250;28350;-65
2021/05/01 06:49:58;;;;;;;26.57;17.50;;;6.30;99.90;;;;;;474669;250;28551;-66
2021/05/01 06:51:59;;;;;;;42.23;24.87;;;6.40;99.90;;;;;;474691;250;27723;-65
2021/05/01 06:54:00;;;;;;;32.03;22.37;;;6.60;99.90;;;;;;483099;244;27768;-65
2021/05/01 06:56:02;;;;;;;42.67;26.07;;;6.80;99.90;;;;;;488041;244;28687;-65
2021/05/01 06:58:04;;;;;;;33.30;24.43;;;7.00;99.90;;;;;;488042;244;27775;-65
2021/05/01 07:00:05;;;;;;;33.30;23.53;;;7.20;99.90;;;;;;488027;244;27899;-65
2021/05/01 07:02:05;;;;;;;36.37;25.20;;;7.20;99.90;;;;;;487994;244;27987;-65
2021/05/01 07:04:07;;;;;;;37.67;26.17;;;7.10;99.90;;;;;;470685;244;27709;-65
2021/05/01 07:06:08;;;;;;;35.50;22.57;;;7.20;99.90;;;;;;476477;247;27896;-65
2021/05/01 07:08:09;;;;;;;33.60;24.43;;;7.20;99.90;;;;;;476462;250;28012;-65
2021/05/01 07:10:11;;;;;;;32.87;22.90;;;7.20;99.90;;;;;;476474;250;27797;-66
2021/05/01 07:12:12;;;;;;;31.47;21.37;;;7.40;99.90;;;;;;476486;249;28232;-65
2021/05/01 07:14:13;;;;;;;31.77;21.30;;;7.30;99.90;;;;;;453525;250;28227;-66
2021/05/01 07:16:14;;;;;;;25.43;20.40;;;7.30;99.90;;;;;;454133;261;28285;-65
2021/05/01 07:18:15;;;;;;;29.50;21.33;;;7.40;99.90;;;;;;462282;257;27818;-65
2021/05/01 07:20:17;;;;;;;30.50;21.30;;;7.50;99.90;;;;;;462280;257;27844;-66
2021/05/01 07:24:28;;;;;;;29.80;20.23;;;7.50;99.90;;;;;;467623;253;27970;-65
2021/05/01 07:26:30;;;;;;;27.30;19.70;;;7.60;99.90;;;;;;469049;253;28040;-65
2021/05/01 07:28:31;;;;;;;24.77;18.77;;;7.70;99.90;;;;;;469062;253;28163;-66
2021/05/01 07:30:32;;;;;;;22.00;17.57;;;7.60;99.90;;;;;;469042;253;28567;-65
2021/05/01 07:32:34;;;;;;;24.47;19.20;;;7.60;99.90;;;;;;469545;241;28211;-66
2021/05/01 07:34:35;;;;;;;24.47;19.40;;;7.80;99.90;;;;;;498047;239;28371;-65
2021/05/01 07:36:36;;;;;;;27.67;18.20;;;8.00;99.90;;;;;;486954;244;27596;-65
2021/05/01 07:38:37;;;;;;;26.03;18.97;;;8.00;99.90;;;;;;489395;243;27985;-66
2021/05/01 07:40:38;;;;;;;23.93;18.07;;;7.90;99.90;;;;;;486941;244;27943;-65
2021/05/01 07:42:40;;;;;;;28.70;19.60;;;7.90;99.90;;;;;;482850;243;28015;-66
2021/05/01 07:44:42;;;;;;;27.27;17.73;;;7.80;99.90;;;;;;453510;262;28142;-65
2021/05/01 07:46:43;;;;;;;25.67;18.40;;;7.90;99.90;;;;;;453494;262;28239;-65
2021/05/01 07:48:46;;;;;;;26.70;18.57;;;7.80;99.90;;;;;;453499;262;28418;-65
2021/05/01 07:50:46;;;;;;;23.67;17.37;;;7.70;99.90;;;;;;453446;258;28617;-66
2021/05/01 07:52:47;;;;;;;25.13;18.03;;;8.00;99.90;;;;;;453971;257;28021;-65
2021/05/01 07:54:48;;;;;;;20.40;15.80;;;8.20;99.90;;;;;;461009;256;27761;-65
2021/05/01 07:56:49;;;;;;;22.80;17.67;;;8.30;99.90;;;;;;460991;256;27890;-66
2021/05/01 07:58:51;;;;;;;24.80;17.30;;;8.30;99.90;;;;;;460988;257;27928;-66
2021/05/01 08:00:52;;;;;;;22.20;16.90;;;8.20;99.90;;;;;;460986;257;28577;-66
2021/05/01 08:02:53;;;;;;;21.77;16.90;;;8.30;99.90;;;;;;458342;252;28487;-66
2021/05/01 08:04:55;;;;;;;25.23;17.90;;;8.40;99.90;;;;;;458880;259;27867;-65
2021/05/01 08:06:56;;;;;;;21.10;16.90;;;8.30;99.90;;;;;;458898;258;28427;-65
2021/05/01 08:08:57;;;;;;;25.03;16.97;;;8.20;99.90;;;;;;458913;258;27736;-65
2021/05/01 08:10:58;;;;;;;22.30;16.40;;;8.30;99.90;;;;;;458906;258;27938;-65
2021/05/01 08:13:00;;;;;;;20.20;15.60;;;8.50;99.90;;;;;;465653;244;27958;-65
2021/05/01 08:15:01;;;;;;;24.13;16.83;;;8.50;99.90;;;;;;487942;244;27975;-65
2021/05/01 08:17:02;;;;;;;22.33;15.00;;;8.50;99.90;;;;;;487916;244;27847;-65
2021/05/01 08:19:04;;;;;;;21.90;16.00;;;8.60;99.90;;;;;;487912;244;27977;-65
2021/05/01 08:21:05;;;;;;;20.33;15.80;;;8.80;99.90;;;;;;487891;244;27950;-66
2021/05/01 08:23:06;;;;;;;22.83;16.30;;;9.10;99.90;;;;;;479961;244;28341;-65
2021/05/01 08:25:07;;;;;;;22.43;16.40;;;9.30;99.90;;;;;;487343;243;28326;-65
2021/05/01 08:27:08;;;;;;;19.50;14.73;;;9.30;99.90;;;;;;487392;244;27870;-65
2021/05/01 08:29:10;;;;;;;21.27;15.03;;;9.10;99.90;;;;;;487363;244;27858;-65
2021/05/01 08:31:11;;;;;;;19.73;14.77;;;9.10;99.90;;;;;;487366;244;27953;-67
2021/05/01 08:33:12;;;;;;;19.83;12.93;;;9.20;99.90;;;;;;485727;243;27842;-66
2021/05/01 08:35:14;;;;;;;18.10;13.30;;;9.30;99.90;;;;;;489185;243;28099;-66
2021/05/01 08:37:15;;;;;;;16.70;13.73;;;9.50;99.90;;;;;;489167;243;27974;-66
2021/05/01 08:39:16;;;;;;;15.87;13.40;;;9.50;99.90;;;;;;489184;243;28265;-65
2021/05/01 08:41:17;;;;;;;17.80;13.83;;;9.60;99.90;;;;;;489186;243;28777;-66
2021/05/01 08:43:19;;;;;;;19.37;13.27;;;9.50;99.90;;;;;;480419;243;28490;-65
2021/05/01 08:45:27;;;;;;;17.10;12.63;;;9.20;99.90;;;;;;472228;251;28302;-66
2021/05/01 08:47:25;;;;;;;15.77;12.80;;;9.20;99.90;;;;;;472204;251;28537;-66
2021/05/01 08:49:25;;;;;;;18.83;13.10;;;9.20;99.90;;;;;;472218;249;28154;-65
2021/05/01 08:51:26;;;;;;;14.20;9.73;;;9.20;99.90;;;;;;472236;252;28699;-65
2021/05/01 08:53:27;;;;;;;16.03;12.40;;;9.20;99.90;;;;;;472952;248;28570;-66
2021/05/01 08:55:29;;;;;;;14.90;12.00;;;9.20;99.90;;;;;;472197;251;28824;-65
2021/05/01 08:57:30;;;;;;;23.93;13.70;;;9.10;99.90;;;;;;474462;251;27919;-65
2021/05/01 08:59:31;;;;;;;16.70;12.80;;;9.00;99.90;;;;;;480953;247;27861;-65
2021/05/01 09:01:36;;;;;;;16.10;12.67;;;9.00;99.90;;;;;;480919;247;27977;-66
2021/05/01 09:03:34;;;;;;;15.43;12.50;;;8.90;99.90;;;;;;467453;247;28179;-66
2021/05/01 09:05:36;;;;;;;20.20;12.73;;;9.00;99.90;;;;;;466478;255;27867;-65
2021/05/01 09:07:36;;;;;;;17.40;12.67;;;9.20;99.90;;;;;;466444;254;27932;-65
2021/05/01 09:09:39;;;;;;;15.60;12.20;;;9.20;99.90;;;;;;466493;255;28475;-65
2021/05/01 09:11:39;;;;;;;23.20;12.40;;;9.20;99.90;;;;;;465823;255;28599;-65
2021/05/01 09:13:40;;;;;;;23.00;12.00;;;9.20;99.90;;;;;;459645;251;28420;-66
2021/05/01 09:15:42;;;;;;;17.33;12.87;;;9.30;99.90;;;;;;470407;253;28245;-66
2021/05/01 09:17:45;;;;;;;15.37;12.23;;;9.30;99.90;;;;;;470390;253;28360;-64
2021/05/01 09:19:44;;;;;;;11.93;10.40;;;9.20;99.90;;;;;;470210;253;28583;-65
2021/05/01 09:21:45;;;;;;;13.77;10.73;;;9.30;99.90;;;;;;470397;253;28581;-65
2021/05/01 09:23:46;;;;;;;13.07;11.00;;;9.60;99.90;;;;;;468848;251;28552;-65
2021/05/01 09:25:48;;;;;;;13.80;11.40;;;9.90;99.90;;;;;;467707;252;28128;-65
2021/05/01 09:27:49;;;;;;;14.87;11.13;;;9.80;99.90;;;;;;468701;252;28230;-65
2021/05/01 09:29:50;;;;;;;12.30;10.83;;;9.70;99.90;;;;;;468699;252;28257;-65
2021/05/01 09:31:51;;;;;;;16.23;10.67;;;9.80;99.90;;;;;;468476;252;28265;-66
2021/05/01 09:33:54;;;;;;;14.47;9.73;;;;;;;;;;473575;247;28436;-65
2021/05/01 09:35:57;;;;;;;12.23;10.43;;;9.90;99.90;;;;;;483626;245;27335;-64
2021/05/01 09:37:58;;;;;;;16.83;11.30;;;10.20;99.90;;;;;;483648;244;28362;-64
2021/05/01 09:40:00;;;;;;;18.53;11.80;;;10.40;99.90;;;;;;483616;244;27943;-65
2021/05/01 09:42:01;;;;;;;12.77;9.73;;;9.90;99.90;;;;;;483601;245;28400;-65
2021/05/01 09:44:03;;;;;;;11.13;8.77;;;10.00;99.90;;;;;;467932;245;28343;-64
2021/05/01 09:46:03;;;;;;;12.37;9.70;;;10.20;99.90;;;;;;463669;256;29016;-65
2021/05/01 09:48:05;;;;;;;14.57;11.00;;;10.40;99.90;;;;;;466131;254;28447;-66
2021/05/01 09:50:07;;;;;;;12.83;9.97;;;;;;;;;;463675;256;28545;-66
2021/05/01 09:52:11;;;;;;;14.80;11.20;;;10.10;99.90;;;;;;464219;255;27395;-65
2021/05/01 09:54:12;;;;;;;14.03;10.23;;;10.00;99.90;;;;;;468162;242;28317;-65
2021/05/01 09:56:16;;;;;;;10.77;9.67;;;10.00;99.90;;;;;;467142;255;28302;-66
2021/05/01 09:58:17;;;;;;;9.43;8.43;;;10.30;99.90;;;;;;467131;255;28076;-65
2021/05/01 10:00:19;;;;;;;15.47;10.67;;;10.50;99.90;;;;;;467092;255;28216;-66
2021/05/01 10:04:26;;;;;;;11.70;10.23;;;10.20;99.90;;;;;;476199;246;28072;-65
2021/05/01 10:06:28;;;;;;;11.90;10.40;;;10.10;99.90;;;;;;476584;249;27965;-65
2021/05/01 10:08:29;;;;;;;12.00;9.30;;;10.10;99.90;;;;;;476585;249;28455;-65
2021/05/01 10:10:30;;;;;;;15.17;9.73;;;10.00;99.90;;;;;;476593;248;28775;-65
2021/05/01 10:12:31;;;;;;;16.10;11.20;;;10.10;99.90;;;;;;476590;249;28403;-64
2021/05/01 10:14:33;;;;;;;17.20;13.00;;;10.30;99.90;;;;;;476595;249;28795;-67
2021/05/01 10:16:34;;;;;;;14.77;11.30;;;10.50;99.90;;;;;;476586;249;28086;-65
2021/05/01 10:18:35;;;;;;;11.60;10.33;;;10.70;99.90;;;;;;476588;249;28553;-65
2021/05/01 10:20:36;;;;;;;13.10;10.47;;;10.80;99.90;;;;;;476561;249;28074;-65
2021/05/01 10:22:39;;;;;;;12.70;9.20;;;10.90;99.90;;;;;;476076;241;28116;-66
2021/05/01 10:24:40;;;;;;;11.00;9.40;;;10.80;99.90;;;;;;482403;246;28271;-65
2021/05/01 10:26:40;;;;;;;19.23;12.17;;;10.90;99.90;;;;;;482407;246;28311;-65
2021/05/01 10:28:42;;;;;;;15.33;11.23;;;10.60;99.90;;;;;;482505;246;29164;-65
2021/05/01 10:30:47;;;;;;;13.57;11.47;;;10.70;99.90;;;;;;482487;246;28238;-65
2021/05/01 10:32:51;;;;;;;13.93;12.27;;;10.70;99.90;;;;;;479556;246;28317;-65
2021/05/01 10:34:48;;;;;;;16.47;13.17;;;10.60;99.90;;;;;;473840;250;28307;-66